Time;durP1;ratioP1;P1;durP2;ratioP2;P2;SDS_P1;SDS_P2;PMS_P1;PMS_P2;Temp;Humidity;BMP_temperature;BMP_pressure;BME280_temperature;BME280_humidity;BME280_pressure;Samples;Min_cycle;Max_cycle;Signal;HPM_P1;HPM_P2
2020/12/09 00:01:15;;;;;;;23.27;18.43;;;6.90;95.10;;;;;;5084872;28;20179;-73
2020/12/09 00:03:42;;;;;;;22.47;16.73;;;6.90;94.80;;;;;;5069962;28;20195;-73
2020/12/09 00:06:08;;;;;;;20.37;17.37;;;6.90;94.50;;;;;;5094000;28;20226;-73
2020/12/09 00:08:34;;;;;;;23.17;19.03;;;6.80;94.40;;;;;;5093134;28;20385;-73
2020/12/09 00:11:00;;;;;;;22.17;18.50;;;6.80;94.60;;;;;;5093400;28;20539;-72
2020/12/09 00:13:26;;;;;;;19.93;17.70;;;6.80;94.70;;;;;;5093773;28;20404;-74
2020/12/09 00:15:53;;;;;;;20.43;16.57;;;6.80;94.40;;;;;;5086741;28;20404;-74
2020/12/09 00:18:18;;;;;;;20.20;17.10;;;6.80;94.60;;;;;;5066238;28;20404;-73
2020/12/09 00:20:44;;;;;;;21.87;16.70;;;6.80;94.80;;;;;;5092241;28;20624;-73
2020/12/09 00:23:10;;;;;;;24.40;18.60;;;6.70;94.70;;;;;;5093689;28;20633;-73
2020/12/09 00:25:36;;;;;;;18.00;16.10;;;6.70;94.80;;;;;;5092898;28;20531;-73
2020/12/09 00:28:02;;;;;;;21.27;17.10;;;6.70;94.60;;;;;;5093481;28;20617;-72
2020/12/09 00:30:28;;;;;;;22.47;17.30;;;6.70;94.60;;;;;;5091884;28;20466;-74
2020/12/09 00:32:53;;;;;;;21.20;17.57;;;6.80;94.60;;;;;;5061174;28;20447;-73
2020/12/09 00:35:19;;;;;;;20.60;16.87;;;6.80;94.70;;;;;;5093421;28;20173;-73
2020/12/09 00:37:45;;;;;;;26.47;18.00;;;6.70;94.80;;;;;;5092075;28;20743;-73
2020/12/09 00:40:11;;;;;;;30.97;19.30;;;6.70;95.00;;;;;;5092089;28;20177;-73
2020/12/09 00:42:36;;;;;;;26.43;18.27;;;6.80;95.60;;;;;;5091780;28;20184;-73
2020/12/09 00:45:06;;;;;;;24.10;17.80;;;6.80;95.80;;;;;;5074926;28;20441;-72
2020/12/09 00:47:32;;;;;;;27.03;18.80;;;6.80;95.90;;;;;;5075781;28;20260;-73
2020/12/09 00:49:58;;;;;;;29.87;19.70;;;6.80;95.90;;;;;;5092125;28;20413;-72
2020/12/09 00:52:30;;;;;;;34.47;18.87;;;6.80;95.90;;;;;;5093289;28;20433;-73
2020/12/09 00:54:56;;;;;;;24.57;19.33;;;6.70;96.10;;;;;;5092637;28;20432;-72
2020/12/09 00:57:22;;;;;;;21.73;17.70;;;6.70;95.80;;;;;;5092529;28;20467;-73
2020/12/09 00:59:48;;;;;;;22.43;17.93;;;6.70;95.40;;;;;;5092196;28;20302;-73
2020/12/09 01:02:14;;;;;;;27.30;19.13;;;6.70;95.50;;;;;;5077544;28;20895;-73
2020/12/09 01:04:40;;;;;;;24.50;19.50;;;6.70;95.50;;;;;;5092528;28;20181;-73
2020/12/09 01:07:06;;;;;;;23.37;17.70;;;6.70;95.30;;;;;;5093234;28;20219;-72
2020/12/09 01:09:31;;;;;;;22.17;17.63;;;6.60;95.10;;;;;;5092390;28;20740;-74
2020/12/09 01:12:02;;;;;;;21.23;18.30;;;6.60;95.10;;;;;;5092547;28;20208;-72
2020/12/09 01:14:28;;;;;;;21.57;17.50;;;6.60;95.20;;;;;;5091965;28;20208;-73
2020/12/09 01:16:54;;;;;;;22.83;17.80;;;6.60;95.30;;;;;;5083489;28;20438;-73
2020/12/09 01:19:20;;;;;;;21.90;16.70;;;6.60;95.40;;;;;;5065895;28;20169;-73
2020/12/09 01:21:45;;;;;;;21.37;17.20;;;6.60;95.40;;;;;;5072368;28;20691;-72
2020/12/09 01:24:11;;;;;;;18.90;16.37;;;6.50;95.60;;;;;;5090957;28;20176;-72
2020/12/09 01:26:37;;;;;;;22.53;16.63;;;6.50;95.80;;;;;;5090087;28;20249;-73
2020/12/09 01:29:03;;;;;;;26.10;16.77;;;6.50;95.70;;;;;;5088260;28;20815;-73
2020/12/09 01:31:29;;;;;;;19.73;16.30;;;6.60;95.90;;;;;;5091034;28;20252;-74
2020/12/09 01:33:54;;;;;;;19.70;15.73;;;6.60;96.10;;;;;;5091935;28;20181;-73
2020/12/09 01:36:21;;;;;;;24.23;16.93;;;6.60;96.20;;;;;;5092454;28;20214;-72
2020/12/09 01:38:47;;;;;;;20.70;16.30;;;6.60;96.20;;;;;;5091582;28;20191;-73
2020/12/09 01:41:13;;;;;;;23.43;18.27;;;6.60;96.40;;;;;;5092087;28;20264;-72
2020/12/09 01:43:46;;;;;;;19.40;16.00;;;6.60;96.40;;;;;;5090496;28;20596;-73
2020/12/09 01:46:25;;;;;;;20.67;16.10;;;6.60;96.50;;;;;;5092372;28;20218;-73
2020/12/09 01:48:52;;;;;;;20.10;15.60;;;6.70;96.60;;;;;;5091036;28;20464;-72
2020/12/09 01:51:19;;;;;;;17.70;15.77;;;6.70;96.40;;;;;;5091844;28;20471;-73
2020/12/09 01:53:45;;;;;;;20.90;14.77;;;6.70;96.40;;;;;;5073307;28;20407;-73
2020/12/09 01:56:10;;;;;;;19.10;15.30;;;6.80;96.60;;;;;;5092467;28;20499;-73
2020/12/09 01:58:36;;;;;;;20.40;16.90;;;6.80;96.60;;;;;;5091335;28;20408;-73
2020/12/09 02:01:02;;;;;;;20.67;16.47;;;6.80;96.50;;;;;;5092732;28;20180;-73
2020/12/09 02:03:28;;;;;;;20.77;16.40;;;6.80;96.50;;;;;;5095790;28;20188;-73
2020/12/09 02:05:54;;;;;;;20.00;16.50;;;6.80;96.50;;;;;;5095316;28;20422;-73
2020/12/09 02:08:20;;;;;;;18.23;15.70;;;6.80;96.50;;;;;;5096270;28;20177;-73
2020/12/09 02:10:58;;;;;;;20.40;16.13;;;6.80;96.40;;;;;;5095181;28;20730;-73
2020/12/09 02:13:25;;;;;;;17.27;15.43;;;6.90;96.30;;;;;;5078228;28;20441;-73
2020/12/09 02:15:52;;;;;;;21.63;15.00;;;6.90;96.40;;;;;;5095071;28;21021;-73
2020/12/09 02:18:18;;;;;;;16.33;14.37;;;6.90;96.50;;;;;;5095942;28;20410;-73
2020/12/09 02:20:44;;;;;;;18.97;16.20;;;6.90;96.60;;;;;;5095441;28;20411;-73
2020/12/09 02:23:09;;;;;;;18.27;15.10;;;6.90;96.70;;;;;;5095859;28;20410;-73
2020/12/09 02:25:36;;;;;;;21.37;16.97;;;6.90;96.70;;;;;;5095054;28;20179;-73
2020/12/09 02:28:01;;;;;;;21.13;15.93;;;6.90;96.60;;;;;;5095978;28;20383;-72
2020/12/09 02:30:27;;;;;;;19.87;15.40;;;6.90;96.60;;;;;;5095513;28;20456;-73
2020/12/09 02:32:53;;;;;;;19.50;16.60;;;6.90;96.70;;;;;;5094919;28;20201;-72
2020/12/09 02:35:18;;;;;;;21.27;15.63;;;6.90;96.60;;;;;;5095591;28;20655;-73
2020/12/09 02:37:44;;;;;;;18.70;16.43;;;6.90;96.60;;;;;;5094228;28;20208;-73
2020/12/09 02:40:10;;;;;;;22.37;16.83;;;6.90;96.50;;;;;;5095898;28;20182;-73
2020/12/09 02:42:35;;;;;;;18.30;15.30;;;7.00;96.50;;;;;;5094705;28;20259;-73
2020/12/09 02:45:02;;;;;;;20.90;15.43;;;6.90;96.40;;;;;;5095645;28;20177;-72
2020/12/09 02:47:27;;;;;;;21.77;15.97;;;6.90;96.40;;;;;;5095348;28;20390;-72
2020/12/09 02:49:53;;;;;;;18.77;16.07;;;7.00;96.30;;;;;;5094718;28;20630;-72
2020/12/09 02:52:19;;;;;;;22.13;17.00;;;7.00;96.30;;;;;;5094654;28;20224;-72
2020/12/09 02:54:45;;;;;;;22.47;16.00;;;7.00;96.40;;;;;;5094864;28;20204;-72
2020/12/09 02:57:10;;;;;;;18.80;16.50;;;7.00;96.20;;;;;;5077391;28;20212;-72
2020/12/09 02:59:36;;;;;;;17.50;15.37;;;7.10;96.20;;;;;;5093882;28;20616;-73
2020/12/09 03:02:02;;;;;;;21.37;16.40;;;7.00;96.10;;;;;;5095398;28;20181;-73
2020/12/09 03:04:27;;;;;;;19.30;16.33;;;7.00;96.20;;;;;;5094665;28;20246;-72
2020/12/09 03:06:53;;;;;;;18.50;16.50;;;7.00;96.20;;;;;;5094398;28;20172;-73
2020/12/09 03:09:19;;;;;;;20.20;16.63;;;7.00;96.20;;;;;;5094966;28;20173;-73
2020/12/09 03:11:45;;;;;;;20.77;16.10;;;7.00;96.00;;;;;;5093915;28;20197;-73
2020/12/09 03:14:10;;;;;;;19.07;15.50;;;7.00;96.00;;;;;;5095074;28;20397;-72
2020/12/09 03:16:36;;;;;;;21.33;15.90;;;7.00;96.10;;;;;;5093771;28;20257;-73
2020/12/09 03:19:02;;;;;;;19.00;15.83;;;7.00;96.10;;;;;;5094785;28;20210;-73
2020/12/09 03:21:30;;;;;;;22.27;17.40;;;7.00;96.20;;;;;;5094789;28;20173;-72
2020/12/09 03:23:57;;;;;;;18.70;16.17;;;7.00;96.30;;;;;;5094130;28;20182;-72
2020/12/09 03:26:26;;;;;;;20.90;17.10;;;7.00;96.40;;;;;;5094847;28;20905;-73
2020/12/09 03:28:55;;;;;;;19.27;16.20;;;7.00;96.30;;;;;;5093948;28;20395;-73
2020/12/09 03:31:21;;;;;;;19.57;16.03;;;6.90;96.10;;;;;;5076517;28;20871;-73
2020/12/09 03:33:47;;;;;;;19.70;15.20;;;6.90;96.00;;;;;;5093956;28;20431;-72
2020/12/09 03:36:13;;;;;;;18.87;15.47;;;6.80;95.90;;;;;;5094404;28;20433;-72
2020/12/09 03:38:39;;;;;;;20.13;15.57;;;6.80;96.00;;;;;;5093795;28;20179;-73
2020/12/09 03:41:05;;;;;;;17.33;15.40;;;6.80;96.20;;;;;;5076083;28;20510;-72
2020/12/09 03:43:30;;;;;;;20.37;17.30;;;6.80;96.40;;;;;;5094444;28;20405;-72
2020/12/09 03:45:56;;;;;;;19.00;15.60;;;6.80;96.50;;;;;;5093602;28;20280;-73
2020/12/09 03:48:22;;;;;;;20.70;16.17;;;6.70;96.50;;;;;;5094269;28;20184;-73
2020/12/09 03:50:48;;;;;;;19.53;16.30;;;6.80;96.70;;;;;;5075431;28;20169;-73
2020/12/09 03:53:14;;;;;;;19.13;16.13;;;6.80;96.70;;;;;;5094231;28;20412;-72
2020/12/09 03:55:39;;;;;;;19.13;16.03;;;6.80;96.70;;;;;;5093374;28;20828;-73
2020/12/09 03:58:06;;;;;;;17.03;15.00;;;6.90;96.70;;;;;;5094279;28;20375;-73
2020/12/09 04:00:32;;;;;;;20.73;16.50;;;6.90;96.60;;;;;;5094164;28;20202;-72
2020/12/09 04:02:58;;;;;;;19.80;15.37;;;6.90;96.60;;;;;;5093304;28;20416;-73
2020/12/09 04:05:25;;;;;;;26.33;16.30;;;6.90;96.60;;;;;;5094103;28;20404;-72
2020/12/09 04:07:50;;;;;;;19.53;15.60;;;6.90;96.60;;;;;;5093209;28;20898;-68
2020/12/09 04:10:16;;;;;;;21.20;15.50;;;6.90;96.50;;;;;;5093642;28;20412;-70
2020/12/09 04:12:42;;;;;;;18.90;15.17;;;6.90;96.30;;;;;;5092951;28;20200;-68
2020/12/09 04:15:08;;;;;;;17.87;15.13;;;6.80;96.20;;;;;;5093814;28;20914;-68
2020/12/09 04:17:34;;;;;;;16.60;14.83;;;6.80;96.40;;;;;;5082496;28;20172;-70
2020/12/09 04:20:00;;;;;;;21.57;16.80;;;6.70;96.40;;;;;;5092045;28;20426;-68
2020/12/09 04:22:25;;;;;;;19.70;16.93;;;6.60;96.40;;;;;;5093860;28;20183;-68
2020/12/09 04:24:51;;;;;;;19.00;16.20;;;6.60;96.30;;;;;;5092748;28;20642;-68
2020/12/09 04:27:17;;;;;;;20.43;16.87;;;6.50;96.20;;;;;;5075389;28;20223;-68
2020/12/09 04:29:42;;;;;;;21.83;16.47;;;6.50;96.50;;;;;;5092414;28;20178;-68
2020/12/09 04:32:08;;;;;;;17.80;15.20;;;6.40;96.80;;;;;;5093303;28;20212;-68
2020/12/09 04:34:35;;;;;;;18.80;14.63;;;6.30;97.00;;;;;;5075794;28;20537;-70
2020/12/09 04:37:01;;;;;;;18.17;14.27;;;6.20;97.20;;;;;;5093785;28;20238;-68
2020/12/09 04:39:27;;;;;;;20.23;16.13;;;5.90;97.90;;;;;;5093485;28;20470;-68
2020/12/09 04:41:53;;;;;;;22.35;16.88;;;5.80;98.40;;;;;;5092398;28;20389;-68
2020/12/09 04:44:19;;;;;;;20.13;15.80;;;5.70;98.80;;;;;;5093713;28;20612;-68
2020/12/09 04:46:49;;;;;;;22.47;16.90;;;5.60;99.20;;;;;;5092953;28;20173;-68
2020/12/09 04:49:23;;;;;;;24.42;16.35;;;5.70;99.40;;;;;;5085152;28;20411;-68
2020/12/09 04:52:26;;;;;;;19.88;15.85;;;5.70;99.40;;;;;;5090014;28;20556;-68
2020/12/09 04:54:57;;;;;;;20.25;15.77;;;5.50;99.60;;;;;;5040399;28;20222;-68
2020/12/09 04:57:32;;;;;;;22.25;16.77;;;5.50;99.90;;;;;;5093254;28;20184;-68
2020/12/09 05:00:08;;;;;;;21.65;14.85;;;5.50;99.90;;;;;;5092725;28;20176;-68
2020/12/09 05:02:45;;;;;;;20.58;15.45;;;5.60;99.90;;;;;;5093411;28;20187;-68
2020/12/09 05:05:16;;;;;;;20.58;16.13;;;5.70;99.90;;;;;;5092544;28;20180;-68
2020/12/09 05:07:53;;;;;;;19.40;13.93;;;5.80;99.90;;;;;;5089329;28;20168;-68
2020/12/09 05:10:24;;;;;;;18.88;15.18;;;5.80;99.90;;;;;;5093213;28;20383;-68
2020/12/09 05:12:52;;;;;;;18.80;14.75;;;5.90;99.70;;;;;;5092825;28;20193;-68
2020/12/09 05:15:20;;;;;;;20.80;16.97;;;5.90;99.60;;;;;;5092763;28;20275;-68
2020/12/09 05:18:03;;;;;;;20.58;15.40;;;6.00;99.60;;;;;;5092339;28;20418;-68
2020/12/09 05:20:32;;;;;;;18.98;14.57;;;6.00;99.30;;;;;;5086958;28;20311;-70
2020/12/09 05:22:58;;;;;;;23.47;15.70;;;6.10;99.40;;;;;;5083082;28;20237;-68
2020/12/09 05:25:25;;;;;;;20.67;15.93;;;6.10;99.30;;;;;;5093351;28;20417;-68
2020/12/09 05:27:53;;;;;;;21.40;16.40;;;6.10;99.20;;;;;;5092590;28;20566;-68
2020/12/09 05:30:39;;;;;;;19.60;15.88;;;6.20;99.00;;;;;;5092644;28;20425;-68
2020/12/09 05:33:06;;;;;;;19.80;16.47;;;6.20;99.00;;;;;;5092861;28;20214;-68
2020/12/09 05:35:32;;;;;;;18.83;15.10;;;6.10;99.00;;;;;;5092087;28;20415;-68
2020/12/09 05:38:18;;;;;;;20.73;16.63;;;6.20;99.00;;;;;;5076567;28;20422;-68
2020/12/09 05:40:45;;;;;;;23.13;17.10;;;6.20;99.40;;;;;;5092238;28;20212;-68
2020/12/09 05:43:13;;;;;;;21.67;15.90;;;6.20;99.00;;;;;;5092923;28;20172;-68
2020/12/09 05:45:39;;;;;;;21.70;16.87;;;6.30;99.00;;;;;;5092047;28;20403;-68
2020/12/09 05:48:15;;;;;;;22.40;16.67;;;6.20;98.90;;;;;;5092629;28;20403;-68
2020/12/09 05:50:56;;;;;;;23.87;17.40;;;6.10;99.20;;;;;;5091949;28;20497;-68
2020/12/09 05:53:24;;;;;;;21.57;17.03;;;6.20;99.20;;;;;;5092507;28;20419;-68
2020/12/09 05:55:54;;;;;;;24.20;17.20;;;6.20;99.20;;;;;;5091439;28;20435;-68
2020/12/09 05:58:37;;;;;;;21.27;16.17;;;6.30;99.10;;;;;;5091985;28;20849;-68
2020/12/09 06:01:32;;;;;;;23.27;17.30;;;6.30;99.10;;;;;;5092564;28;20415;-68
2020/12/09 06:03:58;;;;;;;22.40;17.13;;;6.30;99.00;;;;;;5070138;28;20419;-68
2020/12/09 06:06:25;;;;;;;22.67;15.97;;;6.30;99.00;;;;;;5092311;28;20452;-68
2020/12/09 06:08:55;;;;;;;23.20;15.97;;;6.30;99.30;;;;;;5091520;28;20181;-68
2020/12/09 06:11:25;;;;;;;24.50;16.80;;;6.30;99.30;;;;;;5092311;28;21013;-68
2020/12/09 06:13:52;;;;;;;23.90;16.53;;;6.30;99.30;;;;;;5091738;28;20414;-68
2020/12/09 06:16:18;;;;;;;24.63;18.10;;;6.40;99.40;;;;;;5074068;28;20515;-68
2020/12/09 06:18:49;;;;;;;20.03;16.00;;;6.30;99.40;;;;;;5091728;28;20374;-68
2020/12/09 06:21:15;;;;;;;22.10;16.63;;;6.30;99.40;;;;;;5092319;28;20444;-68
2020/12/09 06:23:42;;;;;;;20.97;16.27;;;6.30;99.40;;;;;;5091816;28;20498;-68
2020/12/09 06:26:08;;;;;;;22.83;17.70;;;6.30;99.30;;;;;;5092263;28;20729;-68
2020/12/09 06:28:37;;;;;;;21.10;16.20;;;6.40;99.50;;;;;;5092340;28;20759;-68
2020/12/09 06:31:12;;;;;;;19.20;15.27;;;6.40;99.60;;;;;;5091171;28;20451;-68
2020/12/09 06:33:42;;;;;;;21.10;16.30;;;6.40;99.60;;;;;;5092588;28;20423;-68
2020/12/09 06:36:19;;;;;;;20.63;15.67;;;6.40;99.70;;;;;;5092515;28;20395;-68
2020/12/09 06:39:04;;;;;;;22.53;16.30;;;6.40;99.80;;;;;;5091553;28;20399;-68
2020/12/09 06:41:30;;;;;;;23.83;16.30;;;6.40;99.70;;;;;;5091658;28;20416;-68
2020/12/09 06:44:10;;;;;;;23.67;17.40;;;6.40;99.70;;;;;;5090984;28;20406;-68
2020/12/09 06:46:50;;;;;;;22.67;16.50;;;6.40;99.60;;;;;;5091657;28;20456;-68
2020/12/09 06:49:28;;;;;;;21.27;17.13;;;6.40;99.60;;;;;;5095944;28;20390;-68
2020/12/09 06:51:54;;;;;;;24.03;18.07;;;6.40;99.80;;;;;;5095138;28;20530;-68
2020/12/09 06:54:20;;;;;;;21.30;16.80;;;6.50;99.90;;;;;;5095449;28;20784;-68
2020/12/09 06:57:12;;;;;;;23.33;17.50;;;6.40;99.80;;;;;;5094704;28;20174;-68
2020/12/09 06:59:37;;;;;;;25.27;19.63;;;6.40;99.90;;;;;;5095733;28;20394;-68
2020/12/09 07:02:06;;;;;;;23.17;18.27;;;6.50;99.90;;;;;;5095089;28;20474;-68
2020/12/09 07:04:53;;;;;;;23.90;17.67;;;6.50;99.90;;;;;;5095540;28;20172;-68
2020/12/09 07:07:39;;;;;;;23.53;18.47;;;6.50;99.70;;;;;;5095351;28;20438;-68
2020/12/09 07:10:19;;;;;;;22.83;16.70;;;6.60;99.70;;;;;;5094969;28;20450;-68
2020/12/09 07:12:47;;;;;;;24.30;17.83;;;6.60;99.70;;;;;;5094889;28;20764;-68
2020/12/09 07:15:14;;;;;;;22.13;17.10;;;6.60;99.90;;;;;;5095241;28;20422;-69
2020/12/09 07:17:39;;;;;;;23.87;17.17;;;6.60;99.90;;;;;;5095679;28;20473;-68
2020/12/09 07:20:06;;;;;;;21.60;16.90;;;6.60;99.90;;;;;;5094741;28;20398;-68
2020/12/09 07:22:32;;;;;;;22.80;18.47;;;6.60;99.90;;;;;;5095236;28;20223;-68
2020/12/09 07:24:57;;;;;;;22.60;17.40;;;6.60;99.90;;;;;;5094772;28;20859;-68
2020/12/09 07:27:25;;;;;;;23.87;18.70;;;6.60;99.90;;;;;;5095074;28;20415;-68
2020/12/09 07:30:03;;;;;;;26.80;19.83;;;6.70;99.90;;;;;;5094386;28;20617;-68
2020/12/09 07:32:29;;;;;;;22.23;18.00;;;6.70;99.90;;;;;;5095041;28;20458;-68
2020/12/09 07:35:03;;;;;;;25.33;18.00;;;6.70;99.90;;;;;;5094806;28;20390;-68
2020/12/09 07:37:33;;;;;;;24.43;19.00;;;6.70;99.90;;;;;;5094878;28;20263;-68
2020/12/09 07:40:09;;;;;;;22.67;18.07;;;6.70;99.90;;;;;;5094473;28;20375;-68
2020/12/09 07:42:35;;;;;;;25.83;19.30;;;6.70;99.90;;;;;;5095056;28;20412;-68
2020/12/09 07:45:00;;;;;;;24.20;18.07;;;6.70;99.90;;;;;;5094177;28;20376;-68
2020/12/09 07:47:29;;;;;;;22.40;17.70;;;6.80;99.90;;;;;;5076614;28;20189;-68
2020/12/09 07:50:03;;;;;;;25.40;18.03;;;6.70;99.90;;;;;;5094159;28;20192;-68
2020/12/09 07:52:30;;;;;;;22.47;18.17;;;6.70;99.90;;;;;;5094735;28;20439;-68
2020/12/09 07:55:06;;;;;;;28.70;20.07;;;6.80;99.90;;;;;;5094214;28;20419;-68
2020/12/09 07:57:33;;;;;;;23.90;18.20;;;6.80;99.90;;;;;;5094227;28;20449;-68
2020/12/09 07:59:59;;;;;;;27.70;19.07;;;6.80;99.90;;;;;;5092176;28;20921;-68
2020/12/09 08:02:27;;;;;;;25.17;19.17;;;6.90;99.90;;;;;;5094270;28;20457;-68
2020/12/09 08:05:21;;;;;;;25.33;19.00;;;6.90;99.90;;;;;;5093530;28;20732;-68
2020/12/09 08:07:58;;;;;;;23.80;18.70;;;6.90;99.90;;;;;;5093773;28;20408;-68
2020/12/09 08:10:26;;;;;;;26.10;19.00;;;6.90;99.90;;;;;;5094752;28;20368;-68
2020/12/09 08:13:04;;;;;;;25.03;18.33;;;6.90;99.90;;;;;;5093609;28;20841;-68
2020/12/09 08:15:30;;;;;;;27.67;20.00;;;6.90;99.90;;;;;;5094232;28;20403;-68
2020/12/09 08:17:56;;;;;;;28.00;19.90;;;6.90;99.90;;;;;;5093544;28;20405;-68
2020/12/09 08:20:21;;;;;;;28.60;19.70;;;6.90;99.90;;;;;;5094414;28;20174;-68
2020/12/09 08:23:03;;;;;;;27.43;19.80;;;6.90;99.90;;;;;;5093174;28;20493;-68
2020/12/09 08:25:31;;;;;;;34.17;21.23;;;6.60;99.90;;;;;;5094038;28;20244;-68
2020/12/09 08:28:07;;;;;;;30.60;21.90;;;6.70;99.90;;;;;;5093233;28;20882;-68
2020/12/09 08:30:34;;;;;;;29.43;20.20;;;6.80;99.90;;;;;;5093895;28;20454;-68
2020/12/09 08:33:05;;;;;;;25.87;20.10;;;6.80;99.90;;;;;;5093118;28;20447;-68
2020/12/09 08:35:48;;;;;;;30.10;21.73;;;6.90;99.90;;;;;;5093543;28;20893;-68
2020/12/09 08:38:36;;;;;;;29.97;21.47;;;7.00;99.90;;;;;;5094056;28;20412;-68
2020/12/09 08:41:08;;;;;;;25.30;19.87;;;7.00;99.90;;;;;;5093195;28;20434;-68
2020/12/09 08:43:35;;;;;;;27.53;20.63;;;7.00;99.90;;;;;;5084280;28;20487;-69
2020/12/09 08:46:03;;;;;;;29.00;21.60;;;7.10;99.90;;;;;;5092222;28;20411;-68
2020/12/09 08:48:32;;;;;;;29.87;21.03;;;7.10;99.90;;;;;;5093707;28;20418;-68
2020/12/09 08:50:58;;;;;;;26.13;21.03;;;7.10;99.90;;;;;;5092799;28;20895;-68
2020/12/09 08:53:24;;;;;;;25.00;19.60;;;7.20;99.90;;;;;;5093525;28;20401;-68
2020/12/09 08:55:49;;;;;;;27.90;21.53;;;7.20;99.90;;;;;;5092697;28;20409;-68
2020/12/09 08:58:17;;;;;;;28.13;21.33;;;7.20;99.90;;;;;;5093218;28;20176;-68
2020/12/09 09:00:43;;;;;;;29.70;22.60;;;7.20;99.90;;;;;;5082572;28;20183;-68
2020/12/09 09:03:19;;;;;;;32.47;22.10;;;7.30;99.90;;;;;;5092307;28;20505;-68
2020/12/09 09:05:47;;;;;;;30.57;21.67;;;7.30;99.90;;;;;;5093221;28;20388;-68
2020/12/09 09:08:14;;;;;;;35.00;23.27;;;7.30;99.90;;;;;;5092965;28;20411;-68
2020/12/09 09:10:41;;;;;;;35.60;24.30;;;7.30;99.90;;;;;;5092943;28;20865;-68
2020/12/09 09:13:07;;;;;;;33.17;24.60;;;7.40;99.90;;;;;;5092476;28;20463;-68
2020/12/09 09:15:34;;;;;;;30.67;23.67;;;7.40;99.90;;;;;;5083587;28;20413;-68
2020/12/09 09:18:00;;;;;;;38.50;24.63;;;7.40;99.90;;;;;;5091801;28;20390;-69
2020/12/09 09:20:27;;;;;;;32.90;24.50;;;7.50;99.90;;;;;;5092147;28;20409;-68
2020/12/09 09:22:53;;;;;;;38.87;26.40;;;7.50;99.90;;;;;;5088363;28;20760;-68
2020/12/09 09:25:20;;;;;;;34.60;24.27;;;7.50;99.90;;;;;;5092844;28;20393;-68
2020/12/09 09:27:50;;;;;;;40.50;26.30;;;7.60;99.90;;;;;;5074996;28;20534;-68
2020/12/09 09:30:16;;;;;;;38.93;26.80;;;7.60;99.90;;;;;;5092368;28;20426;-68
2020/12/09 09:32:43;;;;;;;37.57;26.43;;;7.60;99.90;;;;;;5077921;28;20803;-69
2020/12/09 09:35:08;;;;;;;33.20;23.87;;;7.60;99.90;;;;;;5071281;28;20420;-68
2020/12/09 09:37:34;;;;;;;34.53;24.50;;;7.70;99.90;;;;;;5092403;28;20774;-68
2020/12/09 09:40:00;;;;;;;41.37;27.07;;;7.70;99.90;;;;;;5091915;28;20773;-68
2020/12/09 09:42:26;;;;;;;36.10;24.80;;;7.70;99.80;;;;;;5092464;28;20191;-68
2020/12/09 09:44:52;;;;;;;37.50;25.83;;;7.70;99.70;;;;;;5091411;28;20729;-68
2020/12/09 09:47:18;;;;;;;37.47;25.83;;;7.70;99.70;;;;;;5078696;28;20424;-70
2020/12/09 09:49:44;;;;;;;35.43;24.80;;;7.70;99.60;;;;;;5088673;28;20969;-68
2020/12/09 09:52:10;;;;;;;35.20;24.77;;;7.70;99.50;;;;;;5090298;28;20540;-68
2020/12/09 09:54:37;;;;;;;41.23;26.07;;;7.70;99.40;;;;;;5091384;28;20643;-68
2020/12/09 09:57:04;;;;;;;37.87;25.30;;;7.70;99.40;;;;;;5090739;28;20424;-68
2020/12/09 09:59:30;;;;;;;38.53;26.10;;;7.80;99.20;;;;;;5091208;28;20746;-68
2020/12/09 10:01:56;;;;;;;36.93;25.50;;;7.80;99.40;;;;;;5091127;28;20766;-68
2020/12/09 10:04:23;;;;;;;36.20;25.57;;;7.70;99.20;;;;;;5091130;28;20410;-68
2020/12/09 10:06:52;;;;;;;42.50;27.10;;;7.80;99.30;;;;;;5091384;28;20421;-69
2020/12/09 10:09:18;;;;;;;39.73;26.00;;;7.80;99.20;;;;;;5091824;28;20755;-68
2020/12/09 10:11:45;;;;;;;39.80;27.53;;;7.80;99.20;;;;;;5074189;28;20445;-68
2020/12/09 10:14:12;;;;;;;39.33;26.60;;;7.80;99.10;;;;;;5091777;28;20410;-68
2020/12/09 10:16:43;;;;;;;40.03;27.30;;;7.90;99.30;;;;;;5091984;28;20437;-68
2020/12/09 10:19:09;;;;;;;41.27;28.40;;;7.80;99.10;;;;;;5073531;28;20439;-68
2020/12/09 10:21:35;;;;;;;42.70;29.10;;;7.90;99.00;;;;;;5092295;28;20392;-68
2020/12/09 10:24:03;;;;;;;36.70;26.03;;;7.90;99.00;;;;;;5095695;28;20180;-68
2020/12/09 10:26:39;;;;;;;39.30;27.43;;;7.90;98.80;;;;;;5096353;28;20548;-68
2020/12/09 10:29:08;;;;;;;39.40;25.97;;;8.00;98.80;;;;;;5095414;28;20422;-69
2020/12/09 10:31:38;;;;;;;42.17;27.83;;;7.90;98.70;;;;;;5096032;28;20939;-69
2020/12/09 10:34:05;;;;;;;44.40;28.97;;;8.00;98.70;;;;;;5077447;28;20437;-69
2020/12/09 10:36:31;;;;;;;44.97;29.27;;;8.00;98.50;;;;;;5096095;28;20881;-69
2020/12/09 10:38:57;;;;;;;44.30;28.80;;;8.00;98.60;;;;;;5077110;28;20495;-69
2020/12/09 10:41:23;;;;;;;44.90;30.07;;;8.00;98.50;;;;;;5095987;28;20508;-70
2020/12/09 10:43:52;;;;;;;43.60;28.57;;;8.00;98.30;;;;;;5096225;28;20175;-71
2020/12/09 10:46:20;;;;;;;47.80;31.20;;;8.00;98.30;;;;;;5095940;28;20189;-69
2020/12/09 10:48:47;;;;;;;48.20;29.27;;;7.90;98.40;;;;;;5095338;28;20912;-69
2020/12/09 10:51:13;;;;;;;46.83;29.10;;;7.90;98.50;;;;;;5094416;28;20416;-69
2020/12/09 10:53:38;;;;;;;49.57;31.20;;;7.90;98.70;;;;;;5095489;28;20413;-69
2020/12/09 10:56:04;;;;;;;45.60;30.10;;;7.90;98.60;;;;;;5095259;28;20407;-69
2020/12/09 10:58:31;;;;;;;46.43;30.60;;;7.90;98.50;;;;;;5095766;28;20180;-69
2020/12/09 11:00:57;;;;;;;48.80;32.47;;;7.90;98.60;;;;;;5095064;28;20186;-69
2020/12/09 11:03:24;;;;;;;49.10;30.80;;;8.00;98.60;;;;;;5095711;28;20741;-70
2020/12/09 11:05:50;;;;;;;52.33;31.47;;;8.00;98.50;;;;;;5095461;28;20413;-71
2020/12/09 11:08:16;;;;;;;52.60;32.20;;;8.00;98.30;;;;;;5095878;28;20410;-69
2020/12/09 11:10:42;;;;;;;46.93;29.90;;;8.00;98.40;;;;;;5095446;28;20417;-69
2020/12/09 11:13:08;;;;;;;51.70;32.07;;;8.00;98.50;;;;;;5094781;28;20480;-67
2020/12/09 11:15:35;;;;;;;47.93;29.47;;;8.10;98.40;;;;;;5094963;28;20449;-68
2020/12/09 11:18:01;;;;;;;46.23;30.63;;;8.00;98.30;;;;;;5094534;28;20168;-68
2020/12/09 11:20:27;;;;;;;44.57;30.40;;;8.10;98.00;;;;;;5095126;28;20936;-68
2020/12/09 11:22:53;;;;;;;45.10;29.87;;;8.10;98.00;;;;;;5094659;28;20567;-68
2020/12/09 11:25:21;;;;;;;49.30;29.80;;;8.10;98.00;;;;;;5095579;28;20758;-68
2020/12/09 11:27:47;;;;;;;45.10;29.80;;;8.10;97.90;;;;;;5095072;28;20448;-68
2020/12/09 11:30:12;;;;;;;43.23;30.23;;;8.10;97.90;;;;;;5094294;28;20476;-68
2020/12/09 11:32:38;;;;;;;45.47;29.30;;;8.10;98.00;;;;;;5095529;28;20271;-68
2020/12/09 11:35:04;;;;;;;47.07;29.93;;;8.10;98.30;;;;;;5093117;28;20180;-68
2020/12/09 11:37:33;;;;;;;45.10;30.10;;;8.10;98.20;;;;;;5094737;28;20623;-68
2020/12/09 11:39:59;;;;;;;47.70;30.53;;;8.10;98.00;;;;;;5094197;28;20270;-68
2020/12/09 11:42:25;;;;;;;47.67;29.33;;;8.10;98.40;;;;;;5094010;28;20500;-68
2020/12/09 11:44:51;;;;;;;49.23;32.40;;;8.10;98.20;;;;;;5094514;28;20627;-68
2020/12/09 11:47:18;;;;;;;53.10;29.63;;;8.10;98.10;;;;;;5094229;28;20413;-70
2020/12/09 11:49:44;;;;;;;44.17;28.87;;;8.10;98.00;;;;;;5074021;28;20461;-68
2020/12/09 11:52:09;;;;;;;51.87;31.63;;;8.10;97.90;;;;;;5073492;28;20489;-68
2020/12/09 11:54:35;;;;;;;46.83;29.50;;;8.10;97.80;;;;;;5074367;28;20414;-68
2020/12/09 11:57:01;;;;;;;46.57;30.67;;;8.20;97.80;;;;;;5073699;28;20258;-68
2020/12/09 11:59:27;;;;;;;46.97;28.80;;;8.20;97.60;;;;;;5086591;28;20281;-68
2020/12/09 12:01:53;;;;;;;51.87;30.20;;;8.20;97.60;;;;;;5092626;28;20946;-70
2020/12/09 12:04:19;;;;;;;48.67;31.00;;;8.30;97.70;;;;;;5075575;28;20184;-67
2020/12/09 12:06:45;;;;;;;44.97;29.00;;;8.30;97.60;;;;;;5094298;28;20322;-67
2020/12/09 12:09:11;;;;;;;44.67;29.73;;;8.30;97.30;;;;;;5075708;28;20376;-68
2020/12/09 12:11:37;;;;;;;47.93;31.20;;;8.40;97.10;;;;;;5093099;28;20476;-68
2020/12/09 12:14:03;;;;;;;46.03;28.90;;;8.40;97.30;;;;;;5092228;28;20467;-68
2020/12/09 12:16:29;;;;;;;47.67;29.70;;;8.40;97.30;;;;;;5092235;28;20421;-67
2020/12/09 12:18:55;;;;;;;50.47;31.20;;;8.40;97.10;;;;;;5092037;28;20924;-67
2020/12/09 12:21:25;;;;;;;43.37;29.00;;;8.50;97.00;;;;;;5092619;28;20756;-70
2020/12/09 12:23:51;;;;;;;49.03;28.33;;;8.40;96.70;;;;;;5090195;28;20946;-69
2020/12/09 12:26:19;;;;;;;46.60;28.50;;;8.50;96.30;;;;;;5092678;28;20472;-68
2020/12/09 12:28:46;;;;;;;46.37;30.53;;;8.50;96.50;;;;;;5092609;28;20407;-68
2020/12/09 12:31:13;;;;;;;43.17;28.30;;;8.50;96.90;;;;;;5091700;28;20449;-68
2020/12/09 12:33:39;;;;;;;45.07;29.23;;;8.50;96.80;;;;;;5093015;28;20457;-68
2020/12/09 12:36:06;;;;;;;43.97;28.37;;;8.50;96.70;;;;;;5093315;28;20418;-68
2020/12/09 12:38:32;;;;;;;47.23;28.70;;;8.50;96.60;;;;;;5093238;28;20417;-68
2020/12/09 12:40:57;;;;;;;48.67;30.23;;;8.50;96.80;;;;;;5093190;28;20405;-68